sensor_id;sensor_type;location;lat;lon;timestamp;pressure;altitude;pressure_sealevel;temperature;humidity
47556;BME280;33291;46.222;26.460;2023-04-06T00:01:36;95813.44;;;0.94;100.00
47556;BME280;33291;46.222;26.460;2023-04-06T00:04:02;95797.16;;;0.80;100.00
47556;BME280;33291;46.222;26.460;2023-04-06T00:06:28;95813.63;;;0.91;100.00
47556;BME280;33291;46.222;26.460;2023-04-06T00:08:53;95803.19;;;0.94;100.00
47556;BME280;33291;46.222;26.460;2023-04-06T00:11:19;95805.13;;;0.90;100.00
47556;BME280;33291;46.222;26.460;2023-04-06T00:13:45;95778.50;;;0.78;100.00
47556;BME280;33291;46.222;26.460;2023-04-06T00:16:10;95798.25;;;0.91;100.00
47556;BME280;33291;46.222;26.460;2023-04-06T00:18:36;95763.50;;;0.72;100.00
47556;BME280;33291;46.222;26.460;2023-04-06T00:21:02;95794.75;;;0.92;100.00
47556;BME280;33291;46.222;26.460;2023-04-06T08:12:19;95604.22;;;2.88;88.80
47556;BME280;33291;46.222;26.460;2023-04-06T08:14:44;95596.38;;;2.89;88.60
47556;BME280;33291;46.222;26.460;2023-04-06T08:17:10;95591.25;;;2.89;87.67
47556;BME280;33291;46.222;26.460;2023-04-06T08:19:35;95605.41;;;2.95;86.62
47556;BME280;33291;46.222;26.460;2023-04-06T08:22:02;95606.91;;;2.97;85.87
47556;BME280;33291;46.222;26.460;2023-04-06T08:24:28;95595.69;;;2.98;85.64
47556;BME280;33291;46.222;26.460;2023-04-06T08:26:53;95592.44;;;2.96;85.54
47556;BME280;33291;46.222;26.460;2023-04-06T08:29:19;95601.81;;;3.09;85.96
47556;BME280;33291;46.222;26.460;2023-04-06T08:31:44;95596.66;;;3.09;83.46
47556;BME280;33291;46.222;26.460;2023-04-06T08:34:10;95598.44;;;3.19;84.35
47556;BME280;33291;46.222;26.460;2023-04-06T08:36:36;95598.31;;;3.21;82.71
47556;BME280;33291;46.222;26.460;2023-04-06T08:39:01;95601.22;;;3.28;81.51
47556;BME280;33291;46.222;26.460;2023-04-06T08:41:27;95590.94;;;3.28;82.06
47556;BME280;33291;46.222;26.460;2023-04-06T08:44:02;95601.38;;;3.37;81.35
47556;BME280;33291;46.222;26.460;2023-04-06T08:46:29;95595.75;;;3.44;81.02
47556;BME280;33291;46.222;26.460;2023-04-06T08:49:00;95587.66;;;3.48;81.29
47556;BME280;33291;46.222;26.460;2023-04-06T08:51:26;95590.47;;;3.56;80.97
47556;BME280;33291;46.222;26.460;2023-04-06T08:53:53;95578.06;;;3.62;80.01
47556;BME280;33291;46.222;26.460;2023-04-06T08:56:26;95575.72;;;3.70;77.81
47556;BME280;33291;46.222;26.460;2023-04-06T08:58:52;95576.19;;;3.75;78.60
47556;BME280;33291;46.222;26.460;2023-04-06T09:01:21;95562.94;;;3.80;77.10
47556;BME280;33291;46.222;26.460;2023-04-06T09:03:49;95585.66;;;3.86;76.63
47556;BME280;33291;46.222;26.460;2023-04-06T09:06:16;95573.47;;;3.88;75.99
47556;BME280;33291;46.222;26.460;2023-04-06T09:08:42;95572.16;;;3.94;75.28
47556;BME280;33291;46.222;26.460;2023-04-06T09:11:08;95568.63;;;3.95;73.85
47556;BME280;33291;46.222;26.460;2023-04-06T09:13:54;95573.53;;;3.98;72.95
47556;BME280;33291;46.222;26.460;2023-04-06T09:16:20;95573.09;;;4.04;72.83
47556;BME280;33291;46.222;26.460;2023-04-06T09:18:47;95554.09;;;4.05;73.48
47556;BME280;33291;46.222;26.460;2023-04-06T09:21:13;95574.31;;;4.21;73.23
47556;BME280;33291;46.222;26.460;2023-04-06T09:23:41;95577.59;;;4.23;72.75
47556;BME280;33291;46.222;26.460;2023-04-06T09:26:16;95570.28;;;4.28;70.93
47556;BME280;33291;46.222;26.460;2023-04-06T09:28:54;95562.69;;;4.26;71.79
47556;BME280;33291;46.222;26.460;2023-04-06T09:31:31;95565.84;;;4.30;71.47
47556;BME280;33291;46.222;26.460;2023-04-06T09:33:59;95566.28;;;4.35;71.65
47556;BME280;33291;46.222;26.460;2023-04-06T09:36:36;95579.06;;;4.37;70.86
47556;BME280;33291;46.222;26.460;2023-04-06T09:39:05;95575.53;;;4.38;71.25
47556;BME280;33291;46.222;26.460;2023-04-06T09:41:33;95560.81;;;4.29;71.17
47556;BME280;33291;46.222;26.460;2023-04-06T09:44:10;95566.28;;;4.35;71.48
47556;BME280;33291;46.222;26.460;2023-04-06T09:46:40;95568.75;;;4.37;71.21
47556;BME280;33291;46.222;26.460;2023-04-06T09:49:07;95569.00;;;4.34;71.32
47556;BME280;33291;46.222;26.460;2023-04-06T09:51:55;95589.06;;;4.30;71.89
47556;BME280;33291;46.222;26.460;2023-04-06T09:54:22;95583.91;;;4.19;70.03
47556;BME280;33291;46.222;26.460;2023-04-06T09:56:58;95583.97;;;4.07;67.63
47556;BME280;33291;46.222;26.460;2023-04-06T10:00:01;95594.03;;;4.11;69.57
47556;BME280;33291;46.222;26.460;2023-04-06T10:05:38;95592.28;;;4.00;68.26
47556;BME280;33291;46.222;26.460;2023-04-06T10:08:09;95598.97;;;3.91;69.88
47556;BME280;33291;46.222;26.460;2023-04-06T10:10:35;95592.19;;;3.90;69.78
47556;BME280;33291;46.222;26.460;2023-04-06T10:13:01;95585.91;;;3.83;69.82
47556;BME280;33291;46.222;26.460;2023-04-06T10:15:28;95597.56;;;3.87;69.72
47556;BME280;33291;46.222;26.460;2023-04-06T10:17:55;95588.84;;;3.78;67.89
47556;BME280;33291;46.222;26.460;2023-04-06T10:20:26;95586.94;;;3.69;69.14
47556;BME280;33291;46.222;26.460;2023-04-06T10:25:58;95599.94;;;3.79;69.11
47556;BME280;33291;46.222;26.460;2023-04-06T10:28:24;95590.13;;;3.72;69.57
47556;BME280;33291;46.222;26.460;2023-04-06T10:30:59;95596.66;;;3.65;69.69
47556;BME280;33291;46.222;26.460;2023-04-06T10:33:25;95603.91;;;3.71;70.44
47556;BME280;33291;46.222;26.460;2023-04-06T10:35:51;95581.47;;;3.51;69.18
47556;BME280;33291;46.222;26.460;2023-04-06T10:38:16;95609.44;;;3.55;70.11
47556;BME280;33291;46.222;26.460;2023-04-06T10:40:46;95625.72;;;3.56;69.79
47556;BME280;33291;46.222;26.460;2023-04-06T10:43:13;95617.38;;;3.64;70.96
47556;BME280;33291;46.222;26.460;2023-04-06T10:45:40;95612.13;;;3.54;69.74
47556;BME280;33291;46.222;26.460;2023-04-06T10:48:17;95618.81;;;3.45;68.92
47556;BME280;33291;46.222;26.460;2023-04-06T10:50:48;95619.63;;;3.34;70.00
47556;BME280;33291;46.222;26.460;2023-04-06T10:53:27;95612.13;;;3.43;71.08
47556;BME280;33291;46.222;26.460;2023-04-06T10:55:56;95597.63;;;3.30;69.38
47556;BME280;33291;46.222;26.460;2023-04-06T10:58:28;95603.34;;;3.34;70.50
47556;BME280;33291;46.222;26.460;2023-04-06T11:00:55;95628.28;;;3.45;70.32
47556;BME280;33291;46.222;26.460;2023-04-06T11:03:21;95620.88;;;3.40;70.63
47556;BME280;33291;46.222;26.460;2023-04-06T11:05:48;95620.56;;;3.45;70.98
47556;BME280;33291;46.222;26.460;2023-04-06T11:08:29;95634.25;;;3.45;70.79
47556;BME280;33291;46.222;26.460;2023-04-06T11:11:05;95637.28;;;3.39;70.79
47556;BME280;33291;46.222;26.460;2023-04-06T11:13:41;95637.63;;;3.34;70.99
47556;BME280;33291;46.222;26.460;2023-04-06T11:16:12;95639.25;;;3.35;70.90
47556;BME280;33291;46.222;26.460;2023-04-06T11:18:47;95632.94;;;3.28;71.06
47556;BME280;33291;46.222;26.460;2023-04-06T11:29:35;95655.38;;;3.15;73.09
47556;BME280;33291;46.222;26.460;2023-04-06T11:32:06;95652.13;;;3.13;72.97
47556;BME280;33291;46.222;26.460;2023-04-06T11:34:37;95648.34;;;3.17;73.68
47556;BME280;33291;46.222;26.460;2023-04-06T11:37:12;95647.66;;;3.15;73.58
47556;BME280;33291;46.222;26.460;2023-04-06T11:39:58;95634.31;;;3.10;73.39
47556;BME280;33291;46.222;26.460;2023-04-06T11:42:28;95649.19;;;3.17;73.80
47556;BME280;33291;46.222;26.460;2023-04-06T11:44:58;95668.03;;;3.29;73.67
47556;BME280;33291;46.222;26.460;2023-04-06T11:47:32;95652.47;;;3.31;72.92
47556;BME280;33291;46.222;26.460;2023-04-06T11:50:18;95663.03;;;3.39;73.55
47556;BME280;33291;46.222;26.460;2023-04-06T11:52:43;95667.03;;;3.43;73.27
47556;BME280;33291;46.222;26.460;2023-04-06T11:57:38;95662.69;;;3.44;70.21
47556;BME280;33291;46.222;26.460;2023-04-06T12:00:05;95650.75;;;3.43;70.85
47556;BME280;33291;46.222;26.460;2023-04-06T12:02:31;95662.00;;;3.53;70.46
47556;BME280;33291;46.222;26.460;2023-04-06T12:04:57;95635.06;;;3.46;69.83
47556;BME280;33291;46.222;26.460;2023-04-06T12:07:23;95668.09;;;3.63;69.18
47556;BME280;33291;46.222;26.460;2023-04-06T12:09:48;95648.19;;;3.54;68.81
47556;BME280;33291;46.222;26.460;2023-04-06T12:12:14;95666.91;;;3.67;68.48
47556;BME280;33291;46.222;26.460;2023-04-06T12:14:39;95657.06;;;3.61;67.90
47556;BME280;33291;46.222;26.460;2023-04-06T12:17:05;95656.28;;;3.72;67.62
47556;BME280;33291;46.222;26.460;2023-04-06T12:19:30;95663.03;;;3.73;67.44
47556;BME280;33291;46.222;26.460;2023-04-06T12:21:57;95642.34;;;3.63;67.42
47556;BME280;33291;46.222;26.460;2023-04-06T12:24:22;95670.19;;;3.81;67.88
47556;BME280;33291;46.222;26.460;2023-04-06T12:26:48;95657.91;;;3.73;65.75
47556;BME280;33291;46.222;26.460;2023-04-06T12:29:13;95666.34;;;3.75;65.43
47556;BME280;33291;46.222;26.460;2023-04-06T12:31:40;95663.66;;;3.77;66.18
47556;BME280;33291;46.222;26.460;2023-04-06T12:34:06;95666.44;;;3.85;66.29
47556;BME280;33291;46.222;26.460;2023-04-06T12:36:32;95673.47;;;3.94;65.93
47556;BME280;33291;46.222;26.460;2023-04-06T12:38:58;95665.72;;;3.94;65.64
47556;BME280;33291;46.222;26.460;2023-04-06T12:41:24;95667.38;;;3.95;65.69
47556;BME280;33291;46.222;26.460;2023-04-06T12:43:50;95680.97;;;3.97;65.35
47556;BME280;33291;46.222;26.460;2023-04-06T12:46:16;95681.31;;;4.04;65.36
47556;BME280;33291;46.222;26.460;2023-04-06T12:48:42;95681.28;;;4.15;64.31
47556;BME280;33291;46.222;26.460;2023-04-06T12:51:07;95682.34;;;4.13;63.34
47556;BME280;33291;46.222;26.460;2023-04-06T12:53:34;95678.97;;;4.12;64.36
47556;BME280;33291;46.222;26.460;2023-04-06T12:56:01;95668.53;;;4.02;63.56
47556;BME280;33291;46.222;26.460;2023-04-06T12:58:27;95679.31;;;4.07;63.50
47556;BME280;33291;46.222;26.460;2023-04-06T13:00:53;95673.00;;;4.12;64.01
47556;BME280;33291;46.222;26.460;2023-04-06T13:03:21;95675.56;;;4.12;63.35
47556;BME280;33291;46.222;26.460;2023-04-06T13:05:48;95682.81;;;4.18;63.99
47556;BME280;33291;46.222;26.460;2023-04-06T13:08:15;95677.66;;;4.18;63.74
47556;BME280;33291;46.222;26.460;2023-04-06T13:10:47;95670.31;;;4.13;63.01
47556;BME280;33291;46.222;26.460;2023-04-06T13:13:17;95678.81;;;4.25;62.83
47556;BME280;33291;46.222;26.460;2023-04-06T13:15:43;95683.97;;;4.25;63.38
47556;BME280;33291;46.222;26.460;2023-04-06T13:18:10;95680.22;;;4.29;63.37
47556;BME280;33291;46.222;26.460;2023-04-06T13:20:36;95683.72;;;4.28;63.11
47556;BME280;33291;46.222;26.460;2023-04-06T13:23:01;95658.66;;;4.19;62.18
47556;BME280;33291;46.222;26.460;2023-04-06T13:25:27;95670.38;;;4.23;62.24
47556;BME280;33291;46.222;26.460;2023-04-06T13:27:53;95665.47;;;4.20;63.36
47556;BME280;33291;46.222;26.460;2023-04-06T13:30:19;95683.47;;;4.31;63.91
47556;BME280;33291;46.222;26.460;2023-04-06T13:32:45;95690.66;;;4.27;63.22
47556;BME280;33291;46.222;26.460;2023-04-06T13:35:11;95687.75;;;4.21;62.43
47556;BME280;33291;46.222;26.460;2023-04-06T13:37:37;95689.47;;;4.20;62.89
47556;BME280;33291;46.222;26.460;2023-04-06T13:40:03;95691.50;;;4.17;62.74
47556;BME280;33291;46.222;26.460;2023-04-06T13:42:30;95686.56;;;4.14;63.01
47556;BME280;33291;46.222;26.460;2023-04-06T13:44:55;95699.69;;;4.11;62.51
47556;BME280;33291;46.222;26.460;2023-04-06T13:47:21;95695.94;;;4.03;62.85
47556;BME280;33291;46.222;26.460;2023-04-06T13:49:47;95700.06;;;4.06;63.29
47556;BME280;33291;46.222;26.460;2023-04-06T13:52:13;95697.72;;;4.03;62.56
47556;BME280;33291;46.222;26.460;2023-04-06T13:54:38;95704.59;;;4.02;63.03
47556;BME280;33291;46.222;26.460;2023-04-06T13:57:04;95705.78;;;4.09;63.23
47556;BME280;33291;46.222;26.460;2023-04-06T13:59:36;95705.09;;;4.07;64.07
47556;BME280;33291;46.222;26.460;2023-04-06T14:02:03;95703.44;;;4.06;63.60
47556;BME280;33291;46.222;26.460;2023-04-06T14:04:29;95702.75;;;4.04;63.74
47556;BME280;33291;46.222;26.460;2023-04-06T14:06:55;95693.59;;;4.00;63.65
47556;BME280;33291;46.222;26.460;2023-04-06T14:09:21;95700.63;;;4.09;64.12
47556;BME280;33291;46.222;26.460;2023-04-06T14:11:47;95703.09;;;4.11;63.11
47556;BME280;33291;46.222;26.460;2023-04-06T14:14:12;95702.03;;;4.14;63.65
47556;BME280;33291;46.222;26.460;2023-04-06T14:16:38;95707.19;;;4.14;63.17
47556;BME280;33291;46.222;26.460;2023-04-06T14:19:03;95711.91;;;4.08;62.86
47556;BME280;33291;46.222;26.460;2023-04-06T14:21:29;95701.34;;;4.00;62.43
47556;BME280;33291;46.222;26.460;2023-04-06T14:23:55;95711.16;;;4.06;62.77
47556;BME280;33291;46.222;26.460;2023-04-06T14:26:20;95717.84;;;4.09;63.74
47556;BME280;33291;46.222;26.460;2023-04-06T14:28:46;95709.09;;;4.12;63.90
47556;BME280;33291;46.222;26.460;2023-04-06T14:31:13;95716.44;;;4.16;64.09
47556;BME280;33291;46.222;26.460;2023-04-06T14:33:40;95712.78;;;4.19;63.49
47556;BME280;33291;46.222;26.460;2023-04-06T14:36:06;95703.69;;;4.15;63.99
47556;BME280;33291;46.222;26.460;2023-04-06T14:38:32;95714.56;;;4.18;63.67
47556;BME280;33291;46.222;26.460;2023-04-06T14:40:58;95713.53;;;4.21;63.08
47556;BME280;33291;46.222;26.460;2023-04-06T14:43:23;95710.94;;;4.21;63.43
47556;BME280;33291;46.222;26.460;2023-04-06T14:45:50;95709.97;;;4.22;62.67
47556;BME280;33291;46.222;26.460;2023-04-06T14:48:16;95709.78;;;4.14;62.81
47556;BME280;33291;46.222;26.460;2023-04-06T14:50:51;95715.63;;;4.16;62.53
47556;BME280;33291;46.222;26.460;2023-04-06T14:53:18;95714.72;;;4.05;62.79
47556;BME280;33291;46.222;26.460;2023-04-06T14:55:44;95724.53;;;4.00;62.37
47556;BME280;33291;46.222;26.460;2023-04-06T14:58:09;95707.09;;;3.92;63.21
47556;BME280;33291;46.222;26.460;2023-04-06T15:00:37;95718.91;;;3.95;62.79
47556;BME280;33291;46.222;26.460;2023-04-06T15:03:03;95721.72;;;3.92;63.27
47556;BME280;33291;46.222;26.460;2023-04-06T15:05:29;95718.91;;;3.95;63.79
47556;BME280;33291;46.222;26.460;2023-04-06T15:07:55;95724.06;;;3.95;63.61
47556;BME280;33291;46.222;26.460;2023-04-06T15:10:21;95728.38;;;3.95;63.37
47556;BME280;33291;46.222;26.460;2023-04-06T15:12:46;95711.63;;;3.78;64.96
47556;BME280;33291;46.222;26.460;2023-04-06T15:15:12;95719.84;;;3.83;64.64
47556;BME280;33291;46.222;26.460;2023-04-06T15:17:37;95733.44;;;3.85;64.00
47556;BME280;33291;46.222;26.460;2023-04-06T15:20:03;95730.97;;;3.83;64.46
47556;BME280;33291;46.222;26.460;2023-04-06T15:22:29;95735.66;;;3.78;64.76
47556;BME280;33291;46.222;26.460;2023-04-06T15:24:55;95729.66;;;3.66;64.86
47556;BME280;33291;46.222;26.460;2023-04-06T15:27:20;95717.72;;;3.54;64.86
47556;BME280;33291;46.222;26.460;2023-04-06T15:29:46;95718.41;;;3.56;64.70
47556;BME280;33291;46.222;26.460;2023-04-06T15:32:11;95738.91;;;3.69;65.56
47556;BME280;33291;46.222;26.460;2023-04-06T15:34:37;95746.50;;;3.70;65.08
47556;BME280;33291;46.222;26.460;2023-04-06T15:37:03;95740.53;;;3.59;64.78
47556;BME280;33291;46.222;26.460;2023-04-06T15:39:30;95744.84;;;3.58;65.43
47556;BME280;33291;46.222;26.460;2023-04-06T15:41:56;95738.66;;;3.49;64.39
47556;BME280;33291;46.222;26.460;2023-04-06T15:44:22;95739.22;;;3.42;64.80
47556;BME280;33291;46.222;26.460;2023-04-06T15:46:48;95758.66;;;3.46;65.25
47556;BME280;33291;46.222;26.460;2023-04-06T15:49:13;95764.25;;;3.40;65.92
47556;BME280;33291;46.222;26.460;2023-04-06T15:51:39;95771.28;;;3.37;65.80
47556;BME280;33291;46.222;26.460;2023-04-06T15:54:05;95759.31;;;3.36;66.45
47556;BME280;33291;46.222;26.460;2023-04-06T15:56:33;95767.38;;;3.32;66.76
47556;BME280;33291;46.222;26.460;2023-04-06T15:58:59;95774.19;;;3.33;66.61
47556;BME280;33291;46.222;26.460;2023-04-06T16:01:24;95774.06;;;3.34;66.38
47556;BME280;33291;46.222;26.460;2023-04-06T16:03:50;95750.22;;;3.08;67.13
47556;BME280;33291;46.222;26.460;2023-04-06T16:06:16;95789.22;;;3.26;67.02
47556;BME280;33291;46.222;26.460;2023-04-06T16:08:41;95782.81;;;3.20;67.36
47556;BME280;33291;46.222;26.460;2023-04-06T16:11:07;95785.97;;;3.24;67.63
47556;BME280;33291;46.222;26.460;2023-04-06T16:13:33;95792.75;;;3.25;67.59
47556;BME280;33291;46.222;26.460;2023-04-06T16:15:59;95790.53;;;3.20;67.63
47556;BME280;33291;46.222;26.460;2023-04-06T16:18:25;95793.66;;;3.13;67.37
47556;BME280;33291;46.222;26.460;2023-04-06T16:20:51;95783.19;;;3.03;68.21
47556;BME280;33291;46.222;26.460;2023-04-06T16:23:16;95796.75;;;3.05;68.69
47556;BME280;33291;46.222;26.460;2023-04-06T16:25:42;95802.94;;;3.02;69.55
47556;BME280;33291;46.222;26.460;2023-04-06T16:28:07;95803.16;;;2.99;70.03
47556;BME280;33291;46.222;26.460;2023-04-06T16:30:37;95811.59;;;3.01;69.02
47556;BME280;33291;46.222;26.460;2023-04-06T16:33:03;95803.38;;;2.96;69.24
47556;BME280;33291;46.222;26.460;2023-04-06T16:35:28;95812.50;;;3.00;69.42
47556;BME280;33291;46.222;26.460;2023-04-06T16:37:54;95801.03;;;2.93;69.29
47556;BME280;33291;46.222;26.460;2023-04-06T16:40:19;95806.06;;;2.95;70.58
47556;BME280;33291;46.222;26.460;2023-04-06T16:42:45;95810.69;;;2.90;70.05
47556;BME280;33291;46.222;26.460;2023-04-06T16:45:11;95810.09;;;2.86;69.84
47556;BME280;33291;46.222;26.460;2023-04-06T16:47:37;95806.94;;;2.82;69.78
47556;BME280;33291;46.222;26.460;2023-04-06T16:50:04;95820.22;;;2.76;70.67
47556;BME280;33291;46.222;26.460;2023-04-06T16:52:30;95820.63;;;2.83;71.70
47556;BME280;33291;46.222;26.460;2023-04-06T16:54:55;95825.25;;;2.78;70.44
47556;BME280;33291;46.222;26.460;2023-04-06T16:57:21;95824.97;;;2.70;71.14
47556;BME280;33291;46.222;26.460;2023-04-06T16:59:49;95828.34;;;2.70;72.42
47556;BME280;33291;46.222;26.460;2023-04-06T17:02:14;95833.59;;;2.69;72.45
47556;BME280;33291;46.222;26.460;2023-04-06T17:04:40;95838.16;;;2.65;73.80
47556;BME280;33291;46.222;26.460;2023-04-06T17:07:06;95831.66;;;2.59;73.89
47556;BME280;33291;46.222;26.460;2023-04-06T17:09:31;95837.03;;;2.56;75.29
47556;BME280;33291;46.222;26.460;2023-04-06T17:11:58;95854.22;;;2.56;78.53
47556;BME280;33291;46.222;26.460;2023-04-06T17:14:23;95853.09;;;2.47;77.90
47556;BME280;33291;46.222;26.460;2023-04-06T17:16:48;95846.72;;;2.40;77.51
47556;BME280;33291;46.222;26.460;2023-04-06T17:19:14;95859.47;;;2.41;78.53
47556;BME280;33291;46.222;26.460;2023-04-06T17:21:40;95863.69;;;2.42;78.46
47556;BME280;33291;46.222;26.460;2023-04-06T17:24:08;95856.38;;;2.36;79.16
47556;BME280;33291;46.222;26.460;2023-04-06T17:26:34;95852.78;;;2.39;79.54
47556;BME280;33291;46.222;26.460;2023-04-06T17:28:59;95862.34;;;2.37;80.06
47556;BME280;33291;46.222;26.460;2023-04-06T17:31:25;95866.97;;;2.31;80.09
47556;BME280;33291;46.222;26.460;2023-04-06T17:33:51;95858.78;;;2.26;79.96
47556;BME280;33291;46.222;26.460;2023-04-06T17:36:18;95863.59;;;2.18;81.45
47556;BME280;33291;46.222;26.460;2023-04-06T17:38:43;95869.66;;;2.17;82.57
47556;BME280;33291;46.222;26.460;2023-04-06T17:41:13;95857.13;;;2.00;83.65
47556;BME280;33291;46.222;26.460;2023-04-06T17:43:39;95877.25;;;2.06;83.76
47556;BME280;33291;46.222;26.460;2023-04-06T17:46:04;95870.16;;;1.97;83.73
47556;BME280;33291;46.222;26.460;2023-04-06T17:48:30;95871.19;;;1.94;83.87
47556;BME280;33291;46.222;26.460;2023-04-06T17:50:56;95895.25;;;2.06;83.63
47556;BME280;33291;46.222;26.460;2023-04-06T17:53:22;95893.38;;;1.95;85.38
47556;BME280;33291;46.222;26.460;2023-04-06T17:55:47;95893.56;;;1.92;85.05
47556;BME280;33291;46.222;26.460;2023-04-06T17:58:13;95900.16;;;1.96;84.77
47556;BME280;33291;46.222;26.460;2023-04-06T18:00:38;95894.41;;;1.92;84.57
47556;BME280;33291;46.222;26.460;2023-04-06T18:03:04;95901.28;;;1.92;84.00
47556;BME280;33291;46.222;26.460;2023-04-06T18:05:30;95912.66;;;1.88;85.01
47556;BME280;33291;46.222;26.460;2023-04-06T18:07:56;95902.59;;;1.85;85.08
47556;BME280;33291;46.222;26.460;2023-04-06T18:10:21;95895.81;;;1.84;85.21
47556;BME280;33291;46.222;26.460;2023-04-06T18:12:47;95891.06;;;1.77;85.46
47556;BME280;33291;46.222;26.460;2023-04-06T18:15:13;95917.19;;;1.84;86.05
47556;BME280;33291;46.222;26.460;2023-04-06T18:17:40;95907.03;;;1.83;84.46
47556;BME280;33291;46.222;26.460;2023-04-06T18:20:06;95910.59;;;1.80;83.13
47556;BME280;33291;46.222;26.460;2023-04-06T18:22:32;95908.34;;;1.75;83.25
47556;BME280;33291;46.222;26.460;2023-04-06T18:24:58;95907.31;;;1.78;83.24
47556;BME280;33291;46.222;26.460;2023-04-06T18:27:26;95923.63;;;1.77;83.04
47556;BME280;33291;46.222;26.460;2023-04-06T18:29:54;95927.19;;;1.62;85.15
47556;BME280;33291;46.222;26.460;2023-04-06T18:32:22;95921.25;;;1.61;84.89
47556;BME280;33291;46.222;26.460;2023-04-06T18:34:48;95928.94;;;1.61;79.39
47556;BME280;33291;46.222;26.460;2023-04-06T18:37:13;95938.19;;;1.64;81.68
47556;BME280;33291;46.222;26.460;2023-04-06T18:39:41;95899.09;;;1.46;76.64
47556;BME280;33291;46.222;26.460;2023-04-06T18:42:07;95930.38;;;1.65;74.72
47556;BME280;33291;46.222;26.460;2023-04-06T18:44:32;95929.47;;;1.66;77.30
47556;BME280;33291;46.222;26.460;2023-04-06T18:46:58;95932.66;;;1.70;74.21
47556;BME280;33291;46.222;26.460;2023-04-06T18:49:24;95929.50;;;1.79;67.92
47556;BME280;33291;46.222;26.460;2023-04-06T18:51:51;95930.84;;;1.85;64.75
47556;BME280;33291;46.222;26.460;2023-04-06T18:54:17;95933.66;;;1.94;65.61
47556;BME280;33291;46.222;26.460;2023-04-06T18:56:43;95936.34;;;1.93;66.86
47556;BME280;33291;46.222;26.460;2023-04-06T18:59:09;95932.59;;;1.84;73.23
47556;BME280;33291;46.222;26.460;2023-04-06T19:01:35;95936.28;;;1.80;74.99
47556;BME280;33291;46.222;26.460;2023-04-06T19:04:04;95945.09;;;1.76;75.98
47556;BME280;33291;46.222;26.460;2023-04-06T19:06:30;95941.72;;;1.75;75.12
47556;BME280;33291;46.222;26.460;2023-04-06T19:08:57;95944.47;;;1.72;74.29
47556;BME280;33291;46.222;26.460;2023-04-06T19:11:22;95933.59;;;1.69;75.35
47556;BME280;33291;46.222;26.460;2023-04-06T19:13:49;95942.41;;;1.65;75.79
47556;BME280;33291;46.222;26.460;2023-04-06T19:16:15;95941.34;;;1.54;76.73
47556;BME280;33291;46.222;26.460;2023-04-06T19:18:40;95948.13;;;1.55;77.70
47556;BME280;33291;46.222;26.460;2023-04-06T19:21:14;95932.91;;;1.52;77.17
47556;BME280;33291;46.222;26.460;2023-04-06T19:23:41;95944.66;;;1.56;73.58
47556;BME280;33291;46.222;26.460;2023-04-06T19:26:13;95949.84;;;1.55;73.57
47556;BME280;33291;46.222;26.460;2023-04-06T19:28:41;95937.94;;;1.54;72.17
47556;BME280;33291;46.222;26.460;2023-04-06T19:31:07;95953.06;;;1.58;73.01
47556;BME280;33291;46.222;26.460;2023-04-06T19:33:33;95947.03;;;1.59;73.62
47556;BME280;33291;46.222;26.460;2023-04-06T19:36:00;95952.97;;;1.60;74.65
47556;BME280;33291;46.222;26.460;2023-04-06T19:38:25;95958.00;;;1.62;73.68
47556;BME280;33291;46.222;26.460;2023-04-06T19:40:51;95964.78;;;1.63;73.97
47556;BME280;33291;46.222;26.460;2023-04-06T19:43:18;95928.38;;;1.43;74.09
47556;BME280;33291;46.222;26.460;2023-04-06T19:45:45;95959.75;;;1.61;74.04
47556;BME280;33291;46.222;26.460;2023-04-06T19:48:10;95962.41;;;1.59;72.38
47556;BME280;33291;46.222;26.460;2023-04-06T19:50:36;95966.63;;;1.60;71.47
47556;BME280;33291;46.222;26.460;2023-04-06T19:53:01;95968.28;;;1.62;72.42
47556;BME280;33291;46.222;26.460;2023-04-06T19:55:28;95976.06;;;1.60;72.22
47556;BME280;33291;46.222;26.460;2023-04-06T19:57:53;95971.84;;;1.59;71.67
47556;BME280;33291;46.222;26.460;2023-04-06T20:00:19;95971.75;;;1.60;72.47
47556;BME280;33291;46.222;26.460;2023-04-06T20:02:45;95977.53;;;1.64;73.40
47556;BME280;33291;46.222;26.460;2023-04-06T20:05:10;95985.13;;;1.66;74.00
47556;BME280;33291;46.222;26.460;2023-04-06T20:07:36;95975.06;;;1.63;72.83
47556;BME280;33291;46.222;26.460;2023-04-06T20:10:03;95988.81;;;1.62;73.08
47556;BME280;33291;46.222;26.460;2023-04-06T20:12:29;95980.19;;;1.63;73.24
47556;BME280;33291;46.222;26.460;2023-04-06T20:14:55;95980.91;;;1.65;73.03
47556;BME280;33291;46.222;26.460;2023-04-06T20:17:21;95985.94;;;1.66;73.09
47556;BME280;33291;46.222;26.460;2023-04-06T20:19:47;95992.09;;;1.64;74.19
47556;BME280;33291;46.222;26.460;2023-04-06T20:22:14;95955.75;;;1.42;74.08
47556;BME280;33291;46.222;26.460;2023-04-06T20:24:40;95996.41;;;1.63;76.22
47556;BME280;33291;46.222;26.460;2023-04-06T20:27:06;95976.75;;;1.49;76.05
47556;BME280;33291;46.222;26.460;2023-04-06T20:29:31;95994.03;;;1.60;76.08
47556;BME280;33291;46.222;26.460;2023-04-06T20:31:57;95978.28;;;1.52;75.55
47556;BME280;33291;46.222;26.460;2023-04-06T20:34:23;95992.66;;;1.54;74.90
47556;BME280;33291;46.222;26.460;2023-04-06T20:36:56;95993.41;;;1.56;75.22
47556;BME280;33291;46.222;26.460;2023-04-06T20:39:22;95995.91;;;1.58;75.35
47556;BME280;33291;46.222;26.460;2023-04-06T20:41:49;95998.47;;;1.58;75.79
47556;BME280;33291;46.222;26.460;2023-04-06T20:44:15;96002.03;;;1.55;75.69
47556;BME280;33291;46.222;26.460;2023-04-06T20:46:41;96002.84;;;1.56;75.73
47556;BME280;33291;46.222;26.460;2023-04-06T20:49:07;96001.13;;;1.56;75.93
47556;BME280;33291;46.222;26.460;2023-04-06T20:51:32;96001.28;;;1.53;75.80
47556;BME280;33291;46.222;26.460;2023-04-06T20:53:58;96000.13;;;1.45;74.95
47556;BME280;33291;46.222;26.460;2023-04-06T20:56:25;96003.13;;;1.51;75.19
47556;BME280;33291;46.222;26.460;2023-04-06T20:58:51;95999.00;;;1.49;74.81
47556;BME280;33291;46.222;26.460;2023-04-06T21:01:16;96003.31;;;1.48;74.83
47556;BME280;33291;46.222;26.460;2023-04-06T21:03:43;96011.13;;;1.47;74.91
47556;BME280;33291;46.222;26.460;2023-04-06T21:06:09;95975.53;;;1.28;75.69